Time;durP1;ratioP1;P1;durP2;ratioP2;P2;SDS_P1;SDS_P2;PMS_P1;PMS_P2;Temp;Humidity;BMP_temperature;BMP_pressure;BME280_temperature;BME280_humidity;BME280_pressure;Samples;Min_cycle;Max_cycle;Signal;HPM_P1;HPM_P2
2022/08/14 00:24:55;;;;;;;;;;;22.30;68.50;;;21.68;62.89;95697.38;5030244;27;2097392;-91
2022/08/14 00:27:24;;;;;;;;;;;22.30;68.40;;;21.67;62.90;95693.75;4974756;28;19898;-90
2022/08/14 00:29:52;;;;;;;;;;;22.20;68.30;;;21.66;62.71;95688.56;4974210;28;20223;-91
2022/08/14 00:32:21;;;;;;;;;;;22.30;68.40;;;21.67;62.72;95693.75;4974530;28;20048;-91
2022/08/14 00:34:49;;;;;;;;;;;22.30;69.10;;;21.67;62.76;95690.97;4974375;28;19906;-91
2022/08/14 00:40:30;;;;;;;;;;;22.20;68.20;;;21.67;62.56;95684.59;5007213;28;20026;-91
2022/08/14 00:42:59;;;;;;;;;;;22.20;68.00;;;21.68;62.53;95687.03;4974245;28;19897;-91
2022/08/14 00:45:33;;;;;;;;;;;22.20;68.20;;;21.66;62.92;95672.63;4974204;28;20132;-91
2022/08/14 00:48:02;;;;;;;;;;;22.20;68.00;;;21.67;62.69;95670.69;4974618;28;20054;-90
2022/08/14 00:50:31;;;;;;;;;;;22.30;68.30;;;21.68;62.35;95669.50;4974699;28;19898;-90
2022/08/14 00:53:00;;;;;;;;;;;22.20;68.10;;;21.67;62.78;95674.25;4974691;28;19897;-90
2022/08/14 00:55:30;;;;;;;;;;;22.20;68.10;;;21.67;62.58;95674.25;4974556;28;20313;-91
2022/08/14 01:00:45;;;;;;;;;;;22.30;68.00;;;21.67;62.26;95679.81;4974665;28;20118;-91
2022/08/14 01:07:02;;;;;;;;;;;22.20;67.80;;;21.66;62.61;95680.19;4992522;28;19909;-91
2022/08/14 01:09:30;;;;;;;;;;;22.30;67.90;;;21.67;62.27;95673.47;5007306;28;20136;-91
2022/08/14 01:12:01;;;;;;;;;;;22.20;67.90;;;21.67;62.47;95671.47;4974490;28;19897;-90
2022/08/14 01:14:34;;;;;;;;;;;22.20;67.80;;;21.66;62.38;95664.28;4974425;28;20078;-90
2022/08/14 01:17:04;;;;;;;;;;;22.30;67.90;;;21.65;62.48;95671.00;4974589;28;20082;-90
2022/08/14 01:22:58;;;;;;;;;;;22.20;67.70;;;21.65;62.28;95662.66;5002663;28;20127;-91
2022/08/14 01:25:27;;;;;;;;;;;22.20;67.60;;;21.66;62.04;95671.84;5005309;28;19898;-92
2022/08/14 01:27:57;;;;;;;;;;;22.20;67.50;;;21.65;62.29;95676.59;4970071;28;19897;-91
2022/08/14 01:30:26;;;;;;;;;;;22.20;67.50;;;21.64;62.06;95666.59;4969564;28;19913;-91
2022/08/14 01:32:54;;;;;;;;;;;22.20;67.60;;;21.65;62.33;95676.59;4970234;28;20404;-91
2022/08/14 01:35:32;;;;;;;;;;;22.20;67.60;;;21.64;62.38;95674.97;4970270;28;20081;-91
2022/08/14 01:38:02;;;;;;;;;;;22.20;67.70;;;21.65;62.34;95673.00;4970250;28;19898;-90
2022/08/14 01:40:31;;;;;;;;;;;22.20;67.70;;;21.64;62.17;95674.97;4970602;28;20147;-91
2022/08/14 01:43:01;;;;;;;;;;;22.20;67.60;;;21.64;62.28;95674.97;4970210;28;19963;-91
2022/08/14 01:45:29;;;;;;;;;;;22.20;67.60;;;21.63;62.25;95673.34;4970155;28;20104;-91
2022/08/14 01:47:58;;;;;;;;;;;22.20;67.70;;;21.64;62.49;95677.75;4970021;28;20105;-91
2022/08/14 01:50:27;;;;;;;;;;;22.20;67.80;;;21.63;62.21;95673.34;5002814;28;20037;-91
2022/08/14 01:52:55;;;;;;;;;;;22.20;67.80;;;21.62;62.14;95674.53;5002852;28;19937;-91
2022/08/14 01:55:28;;;;;;;;;;;22.20;67.70;;;21.63;62.21;95678.91;4970128;28;19950;-90
2022/08/14 01:57:56;;;;;;;;;;;22.20;67.70;;;21.63;62.17;95681.69;4969990;28;19904;-90
2022/08/14 02:00:25;;;;;;;;;;;22.20;67.70;;;21.62;62.46;95682.88;5009390;28;19897;-91
2022/08/14 02:02:55;;;;;;;;;;;22.20;67.80;;;21.62;62.54;95674.53;4970179;28;19904;-90
2022/08/14 02:05:30;;;;;;;;;;;22.20;68.00;;;21.61;62.02;95684.06;4970260;28;19931;-91
2022/08/14 02:07:58;;;;;;;;;;;22.20;67.90;;;21.63;62.33;95678.13;4969962;28;20243;-90
2022/08/14 02:10:28;;;;;;;;;;;22.20;67.70;;;21.60;62.11;95668.50;4969942;28;19901;-91
2022/08/14 02:12:57;;;;;;;;;;;22.20;67.70;;;21.61;62.10;95675.69;5002580;28;19898;-91
2022/08/14 02:15:26;;;;;;;;;;;22.20;67.80;;;21.59;62.27;95680.78;5002716;28;19905;-91
2022/08/14 02:17:54;;;;;;;;;;;22.20;67.60;;;21.59;62.27;95675.22;4969773;28;20098;-91
2022/08/14 02:20:23;;;;;;;;;;;22.20;67.50;;;21.59;61.73;95680.78;4969268;28;20013;-91
2022/08/14 02:22:52;;;;;;;;;;;22.20;67.50;;;21.60;62.24;95679.66;4969557;28;19958;-91
2022/08/14 02:25:21;;;;;;;;;;;22.20;67.40;;;21.59;62.02;95676.03;5002660;28;20033;-90
2022/08/14 02:27:54;;;;;;;;;;;22.20;67.50;;;21.60;62.00;95679.66;4969884;28;19897;-91
2022/08/14 02:30:25;;;;;;;;;;;22.20;67.50;;;21.57;62.17;95674.75;4969647;28;19897;-91
2022/08/14 02:32:54;;;;;;;;;;;22.20;67.50;;;21.58;62.16;95679.16;4969990;28;19897;-91
2022/08/14 02:35:26;;;;;;;;;;;22.20;67.60;;;21.58;62.03;95685.53;4970080;28;19916;-91
2022/08/14 02:37:54;;;;;;;;;;;22.20;67.50;;;21.58;61.97;95676.38;5008194;28;20244;-91
2022/08/14 02:40:23;;;;;;;;;;;22.20;67.60;;;21.55;61.97;95683.47;4969938;28;20028;-91
2022/08/14 02:42:53;;;;;;;;;;;22.20;67.50;;;21.57;62.01;95688.66;4969874;28;20053;-90
2022/08/14 02:45:22;;;;;;;;;;;22.20;67.40;;;21.57;62.03;95694.25;5002452;28;19897;-91
2022/08/14 02:47:51;;;;;;;;;;;22.20;67.40;;;21.56;62.15;95689.84;4969802;28;20335;-90
2022/08/14 02:50:20;;;;;;;;;;;22.20;67.60;;;21.57;62.27;95697.03;4969890;28;19904;-91
2022/08/14 02:52:48;;;;;;;;;;;22.20;67.50;;;21.57;61.91;95694.25;4969894;28;20193;-91
2022/08/14 02:55:17;;;;;;;;;;;22.10;67.50;;;21.57;62.06;95699.81;4969867;28;19920;-91
2022/08/14 02:57:45;;;;;;;;;;;22.20;67.40;;;21.56;62.28;95698.19;4969991;28;19949;-91
2022/08/14 03:00:16;;;;;;;;;;;22.20;67.60;;;21.56;62.10;95689.84;4969680;28;19898;-91
2022/08/14 03:02:44;;;;;;;;;;;22.20;67.60;;;21.56;62.37;95701.78;4969851;28;19904;-90
2022/08/14 03:05:13;;;;;;;;;;;22.20;67.60;;;21.55;62.08;95699.34;5002389;28;20108;-90
2022/08/14 03:07:42;;;;;;;;;;;22.10;67.60;;;21.55;61.97;95694.59;4969846;28;19943;-90
2022/08/14 03:10:10;;;;;;;;;;;22.10;67.50;;;21.54;62.34;95700.50;4969594;28;19905;-90
2022/08/14 03:12:39;;;;;;;;;;;22.20;67.50;;;21.55;62.14;95693.78;5002731;28;20045;-90
2022/08/14 03:15:12;;;;;;;;;;;22.10;67.60;;;21.53;62.10;95702.50;5009057;28;20453;-90
2022/08/14 03:17:42;;;;;;;;;;;22.10;67.60;;;21.54;62.02;95697.72;5008567;28;19897;-90
2022/08/14 03:20:12;;;;;;;;;;;22.20;67.50;;;21.53;61.98;95707.25;5009040;28;19898;-90
2022/08/14 03:22:40;;;;;;;;;;;22.10;67.60;;;21.53;62.13;95701.69;4969874;28;20298;-90
2022/08/14 03:25:10;;;;;;;;;;;22.10;67.50;;;21.54;61.90;95708.88;4969498;28;19904;-90
2022/08/14 03:27:39;;;;;;;;;;;22.10;67.40;;;21.52;62.17;95711.19;4969714;28;19898;-90
2022/08/14 03:30:10;;;;;;;;;;;22.10;67.50;;;21.53;61.94;95707.25;5002585;28;20104;-90
2022/08/14 03:32:39;;;;;;;;;;;22.10;67.50;;;21.53;61.87;95707.25;5009003;28;19897;-90
2022/08/14 03:35:10;;;;;;;;;;;22.10;67.50;;;21.52;62.00;95711.19;4969673;28;19905;-90
2022/08/14 03:37:38;;;;;;;;;;;22.10;67.40;;;21.51;62.11;95704.81;4969702;28;19921;-90
2022/08/14 03:40:10;;;;;;;;;;;22.10;67.40;;;21.52;61.92;95717.59;5008925;28;20298;-90
2022/08/14 03:42:39;;;;;;;;;;;22.10;67.40;;;21.53;61.84;95708.06;4969509;28;19904;-90
2022/08/14 03:45:08;;;;;;;;;;;22.10;67.40;;;21.52;62.05;95702.84;5002212;28;20075;-90
2022/08/14 03:47:39;;;;;;;;;;;22.10;67.40;;;21.52;62.08;95716.75;4969659;28;19901;-90
2022/08/14 03:50:09;;;;;;;;;;;22.10;67.50;;;21.53;62.23;95718.38;5008814;28;20037;-90
2022/08/14 03:52:38;;;;;;;;;;;22.10;67.50;;;21.55;62.12;95716.06;5002557;28;19897;-91
2022/08/14 03:55:08;;;;;;;;;;;22.10;67.40;;;21.54;62.16;95712.47;4969751;28;19898;-91
2022/08/14 03:57:55;;;;;;;;;;;22.10;67.40;;;21.55;61.97;95710.50;4969882;28;20149;-90
2022/08/14 04:00:24;;;;;;;;;;;22.20;67.40;;;21.56;61.88;95718.47;4969570;28;19897;-90
2022/08/14 04:02:53;;;;;;;;;;;22.20;67.40;;;21.55;61.86;95700.19;4969696;28;19926;-91
2022/08/14 04:05:55;;;;;;;;;;;22.20;67.50;;;21.58;62.29;95715.38;4969597;28;19897;-90
2022/08/14 04:08:24;;;;;;;;;;;22.20;67.50;;;21.57;62.05;95697.03;4966913;28;20018;-91
2022/08/14 04:14:19;;;;;;;;;;;22.20;67.40;;;21.60;62.04;95713.06;4992405;28;20100;-90
2022/08/14 04:16:47;;;;;;;;;;;22.20;67.60;;;21.59;62.19;95719.78;4969520;28;20104;-91
2022/08/14 04:19:18;;;;;;;;;;;22.20;67.60;;;21.60;62.00;95707.50;4969434;28;20112;-91
2022/08/14 04:21:49;;;;;;;;;;;22.20;67.50;;;21.59;62.17;95714.19;5001980;28;20288;-91
2022/08/14 04:24:18;;;;;;;;;;;22.20;67.40;;;21.63;62.17;95722.69;4969467;28;20042;-91
2022/08/14 04:26:47;;;;;;;;;;;22.20;67.30;;;21.61;61.82;95720.25;4969531;28;19905;-91
2022/08/14 04:29:16;;;;;;;;;;;22.20;67.10;;;21.62;61.83;95719.09;4969224;28;19897;-91
2022/08/14 04:31:45;;;;;;;;;;;22.20;67.00;;;21.60;61.72;95715.84;4969436;28;19931;-91
2022/08/14 04:34:14;;;;;;;;;;;22.20;67.00;;;21.62;61.82;95721.88;4969600;28;19897;-91
2022/08/14 04:44:58;;;;;;;;;;;22.20;67.40;;;21.67;62.22;95718.81;4969265;28;20049;-91
2022/08/14 04:50:13;;;;;;;;;;;22.30;67.90;;;21.73;62.42;95714.63;5008507;28;19963;-90
2022/08/14 04:52:42;;;;;;;;;;;22.30;68.00;;;21.75;62.62;95717.84;5001847;28;20106;-91
2022/08/14 04:55:13;;;;;;;;;;;22.30;68.00;;;21.76;62.53;95707.53;4970126;28;20105;-91
2022/08/14 04:57:42;;;;;;;;;;;22.30;67.90;;;21.77;62.47;95709.94;4970199;28;19898;-91
2022/08/14 05:00:12;;;;;;;;;;;22.40;68.00;;;21.75;62.52;95703.91;4970206;28;20196;-90
2022/08/14 05:02:40;;;;;;;;;;;22.40;67.90;;;21.77;62.77;95703.59;4970253;28;20114;-90
2022/08/14 05:05:09;;;;;;;;;;;22.30;68.00;;;21.76;62.76;95704.75;4970284;28;19898;-91
2022/08/14 05:07:38;;;;;;;;;;;22.40;68.00;;;21.76;62.49;95705.53;5002720;28;19965;-90
2022/08/14 05:10:08;;;;;;;;;;;22.30;68.00;;;21.75;62.84;95695.56;4970088;28;19897;-91
2022/08/14 05:12:38;;;;;;;;;;;22.40;68.00;;;21.74;62.73;95691.19;5009520;28;20437;-90
2022/08/14 05:15:09;;;;;;;;;;;22.30;68.00;;;21.75;62.67;95695.56;5009499;28;20047;-90
2022/08/14 05:17:42;;;;;;;;;;;22.30;68.00;;;21.75;62.77;95703.91;4969969;28;20394;-90
2022/08/14 05:20:11;;;;;;;;;;;22.30;68.00;;;21.76;62.85;95699.97;4970121;28;19898;-90
2022/08/14 05:22:40;;;;;;;;;;;22.40;68.10;;;21.76;62.81;95696.38;4969952;28;19904;-91
2022/08/14 05:25:09;;;;;;;;;;;22.40;68.10;;;21.80;62.87;95694.53;4970182;28;20037;-90
2022/08/14 05:27:39;;;;;;;;;;;22.40;68.10;;;21.83;62.92;95696.56;5009125;28;19897;-90
2022/08/14 05:30:09;;;;;;;;;;;22.40;68.00;;;21.89;62.25;95697.94;5002692;28;20101;-90
2022/08/14 05:47:00;;;;;;;;;;;22.50;67.30;;;22.10;62.19;95680.16;4303977;32;19909;-89
2022/08/14 05:49:29;;;;;;;;;;;22.70;67.60;;;22.15;61.92;95670.72;4274784;33;19901;-89
2022/08/14 05:51:58;;;;;;;;;;;22.70;67.30;;;22.22;61.81;95665.34;4275362;33;19902;-89
2022/08/14 05:54:26;;;;;;;;;;;22.80;67.10;;;22.25;61.35;95663.78;4274387;33;19973;-89
2022/08/14 05:56:54;;;;;;;;;;;22.80;66.80;;;22.28;61.95;95652.72;4273894;33;19902;-88
2022/08/14 05:59:23;;;;;;;;;;;22.90;66.80;;;22.31;61.56;95652.00;4274443;33;19978;-88
2022/08/14 06:01:51;;;;;;;;;;;22.90;66.70;;;22.34;61.14;95651.28;4274134;33;19929;-89
2022/08/14 06:04:21;;;;;;;;;;;22.90;66.60;;;22.37;60.92;95647.78;4274081;33;20209;-89
2022/08/14 06:06:50;;;;;;;;;;;22.90;66.40;;;22.42;60.84;95651.50;4249367;33;19902;-88
2022/08/14 06:09:19;;;;;;;;;;;23.00;66.20;;;22.45;60.90;95656.34;4245254;33;20208;-89
2022/08/14 06:11:47;;;;;;;;;;;23.10;66.30;;;22.46;61.16;95650.41;4221555;33;19909;-88
2022/08/14 06:14:16;;;;;;;;;;;23.10;66.20;;;22.52;60.74;95653.75;4245284;33;19902;-88
2022/08/14 06:16:46;;;;;;;;;;;23.10;65.90;;;22.54;60.46;95648.59;4244534;33;20116;-88
2022/08/14 06:19:14;;;;;;;;;;;23.20;66.00;;;22.56;60.88;95653.81;4221626;33;19970;-89
2022/08/14 06:21:44;;;;;;;;;;;23.20;66.70;;;22.59;60.71;95653.91;4245019;33;19902;-89
2022/08/14 06:24:13;;;;;;;;;;;23.20;65.80;;;22.62;60.61;95661.56;4246097;33;19963;-88
2022/08/14 06:26:41;;;;;;;;;;;23.20;65.70;;;22.63;60.28;95648.41;4244530;33;19909;-88
2022/08/14 06:29:10;;;;;;;;;;;23.20;65.60;;;22.65;60.35;95652.47;4221577;33;19909;-89
2022/08/14 06:31:38;;;;;;;;;;;23.30;65.70;;;22.67;60.24;95641.72;4221368;33;20060;-88
2022/08/14 06:34:07;;;;;;;;;;;23.30;65.70;;;22.68;60.58;95645.34;4221573;33;19910;-89
2022/08/14 06:48:02;;;;;;;;;;;23.30;65.10;;;22.71;60.46;95641.00;4303935;32;20160;-89
2022/08/14 06:50:31;;;;;;;;;;;23.30;65.50;;;22.67;60.72;95647.31;4250411;33;19902;-88
2022/08/14 06:53:00;;;;;;;;;;;23.30;65.60;;;22.66;60.31;95640.09;4250403;33;20291;-88
2022/08/14 06:55:28;;;;;;;;;;;23.30;65.60;;;22.65;60.53;95637.69;4274059;33;19909;-87
2022/08/14 06:57:57;;;;;;;;;;;23.30;65.60;;;22.66;60.31;95640.09;4273573;33;19917;-87
2022/08/14 07:00:27;;;;;;;;;;;23.30;65.70;;;22.63;60.66;95638.06;4274173;33;20239;-89
2022/08/14 07:05:49;;;;;;;;;;;23.20;65.60;;;22.58;60.62;95631.97;4222488;33;19902;-88
2022/08/14 07:08:18;;;;;;;;;;;23.20;65.70;;;22.55;60.70;95624.31;4244886;33;19902;-90
2022/08/14 07:10:48;;;;;;;;;;;23.20;65.80;;;22.51;61.01;95627.03;4250629;33;20156;-89
2022/08/14 07:13:18;;;;;;;;;;;23.10;65.90;;;22.50;61.16;95630.97;4274121;33;19909;-89
2022/08/14 07:15:49;;;;;;;;;;;23.10;66.10;;;22.48;61.03;95627.75;4273923;33;19909;-89
2022/08/14 07:18:19;;;;;;;;;;;23.10;66.10;;;22.48;60.90;95628.53;4273475;33;19941;-89
2022/08/14 07:20:49;;;;;;;;;;;23.10;66.30;;;22.52;60.75;95620.28;4249855;33;19901;-89
2022/08/14 07:23:18;;;;;;;;;;;23.10;66.20;;;22.52;60.91;95617.50;4273727;33;19902;-89
2022/08/14 07:25:47;;;;;;;;;;;23.10;66.00;;;22.50;60.84;95615.03;4274083;33;20260;-89
2022/08/14 07:40:30;;;;;;;;;;;23.10;65.70;;;22.40;61.00;95620.34;4303750;32;19909;-84
2022/08/14 07:42:59;;;;;;;;;;;23.00;66.40;;;22.38;61.15;95618.75;4283824;28;20185;-81
2022/08/14 07:45:29;;;;;;;;;;;23.00;66.40;;;22.38;61.19;95617.91;4221365;33;20124;-84
2022/08/14 07:59:04;;;;;;;;;;;23.00;66.00;;;22.66;60.21;95623.38;4310520;32;20138;-81
2022/08/14 08:01:34;;;;;;;;;;;23.20;65.90;;;22.72;60.18;95620.31;4253028;28;19903;-87
2022/08/14 08:04:03;;;;;;;;;;;23.20;65.70;;;22.76;60.03;95624.78;4175449;34;19911;-89
2022/08/14 08:06:37;;;;;;;;;;;23.30;65.70;;;22.78;60.06;95622.44;4176284;34;19910;-89
2022/08/14 08:09:07;;;;;;;;;;;23.30;65.50;;;22.78;60.05;95624.44;4175905;34;20309;-89
2022/08/14 08:11:36;;;;;;;;;;;23.30;65.40;;;22.81;59.74;95623.69;4194785;33;19920;-89
2022/08/14 08:14:09;;;;;;;;;;;23.40;65.30;;;22.84;60.33;95617.38;4148895;34;19938;-88
2022/08/14 08:16:38;;;;;;;;;;;23.40;65.20;;;22.83;59.99;95618.56;4144306;34;20326;-88
2022/08/14 08:19:10;;;;;;;;;;;23.40;65.20;;;22.84;60.02;95617.38;4120989;34;19904;-89
2022/08/14 08:21:39;;;;;;;;;;;23.40;65.20;;;22.84;59.86;95611.81;4196942;34;19903;-89
2022/08/14 08:24:09;;;;;;;;;;;23.40;65.10;;;22.83;60.29;95610.19;4147858;34;19910;-88
2022/08/14 08:26:37;;;;;;;;;;;23.40;65.10;;;22.83;60.12;95618.56;4174777;34;20107;-88
2022/08/14 08:29:08;;;;;;;;;;;23.40;65.20;;;22.82;60.02;95605.78;4175811;34;19958;-88
2022/08/14 08:36:07;;;;;;;;;;;23.40;65.20;;;22.83;60.01;95588.69;4176916;34;20074;-87
2022/08/14 08:38:38;;;;;;;;;;;23.40;65.10;;;22.82;60.12;95594.63;4148934;34;20250;-87
2022/08/14 08:41:09;;;;;;;;;;;23.40;65.10;;;22.79;60.00;95586.97;4148813;34;19910;-87
2022/08/14 08:46:24;;;;;;;;;;;23.30;65.30;;;22.75;60.45;95572.94;4169514;34;20214;-87
2022/08/14 08:48:59;;;;;;;;;;;23.30;65.40;;;22.72;60.16;95575.66;4147411;34;19910;-87
2022/08/14 08:51:29;;;;;;;;;;;23.30;65.40;;;22.72;60.39;95575.66;4171261;34;19975;-87
2022/08/14 08:53:59;;;;;;;;;;;23.30;65.50;;;22.70;60.46;95569.63;4170166;34;20241;-88
2022/08/14 08:56:39;;;;;;;;;;;23.30;66.40;;;22.67;60.29;95569.19;4171166;34;20078;-86
2022/08/14 08:59:19;;;;;;;;;;;23.30;65.60;;;22.65;60.36;95559.56;4142592;34;20101;-86
2022/08/14 09:01:51;;;;;;;;;;;23.30;65.60;;;22.63;60.40;95562.75;4161817;34;19911;-86
2022/08/14 09:04:20;;;;;;;;;;;23.20;65.60;;;22.61;60.65;95559.50;4161800;34;19904;-86
2022/08/14 09:06:49;;;;;;;;;;;23.20;65.70;;;22.59;60.88;95561.84;4161784;34;19911;-86
2022/08/14 09:09:20;;;;;;;;;;;23.20;65.80;;;22.60;60.97;95557.06;4161637;34;20108;-86
2022/08/14 09:11:48;;;;;;;;;;;23.20;65.90;;;22.59;60.65;95552.69;4139305;34;19911;-86
2022/08/14 09:14:17;;;;;;;;;;;23.20;66.80;;;22.59;60.82;95556.25;4139172;34;19904;-87
2022/08/14 09:16:46;;;;;;;;;;;23.20;65.90;;;22.57;60.58;95541.88;4138436;34;19910;-88
2022/08/14 09:19:16;;;;;;;;;;;23.20;65.90;;;22.58;60.50;95546.28;4161146;34;19910;-87
2022/08/14 09:21:45;;;;;;;;;;;23.20;65.90;;;22.60;61.04;95543.94;4138863;34;19903;-87
2022/08/14 09:24:14;;;;;;;;;;;23.20;65.90;;;22.59;60.65;95539.53;4139032;34;20126;-87
2022/08/14 09:26:46;;;;;;;;;;;23.20;65.90;;;22.60;60.66;95540.31;4161654;34;19904;-87
2022/08/14 09:29:23;;;;;;;;;;;23.20;65.90;;;22.55;61.12;95527.47;4138168;34;19903;-87
2022/08/14 09:31:54;;;;;;;;;;;23.20;66.00;;;22.54;60.97;95534.22;4177196;34;19910;-86
2022/08/14 09:34:39;;;;;;;;;;;23.10;66.10;;;22.51;61.03;95534.97;4165752;34;20109;-87
2022/08/14 09:37:23;;;;;;;;;;;23.10;66.20;;;22.48;61.29;95533.72;4165911;34;19903;-87
2022/08/14 09:39:59;;;;;;;;;;;23.10;66.30;;;22.47;61.07;95531.28;4165512;34;19989;-87
2022/08/14 09:42:50;;;;;;;;;;;23.10;66.40;;;22.46;61.36;95524.09;4165545;34;19910;-87
2022/08/14 09:45:21;;;;;;;;;;;23.10;66.40;;;22.45;61.28;95523.31;4164065;34;20016;-87
2022/08/14 09:47:51;;;;;;;;;;;23.10;66.40;;;22.43;61.52;95524.81;4187618;34;19912;-87
2022/08/14 09:50:28;;;;;;;;;;;23.00;66.50;;;22.41;61.24;95527.13;4165457;34;20097;-86
2022/08/14 09:53:01;;;;;;;;;;;23.00;66.50;;;22.38;61.53;95523.91;4188420;34;20084;-87
2022/08/14 09:55:31;;;;;;;;;;;23.00;66.60;;;22.36;61.59;95519.84;4188701;34;19963;-87
2022/08/14 09:58:12;;;;;;;;;;;23.00;66.70;;;22.34;61.76;95517.44;4138590;34;20318;-86
2022/08/14 10:00:46;;;;;;;;;;;23.00;66.70;;;22.33;61.56;95515.03;4160977;34;19904;-86
2022/08/14 10:03:26;;;;;;;;;;;22.90;66.80;;;22.31;61.88;95511.78;4137254;34;20017;-86
2022/08/14 10:06:07;;;;;;;;;;;22.90;67.00;;;22.31;61.78;95518.16;4137382;34;19965;-86
2022/08/14 10:08:44;;;;;;;;;;;22.90;67.00;;;22.31;61.59;95511.78;4137559;34;19904;-86
2022/08/14 10:11:18;;;;;;;;;;;22.90;67.00;;;22.31;61.70;95515.38;4137402;34;20305;-87
2022/08/14 10:13:48;;;;;;;;;;;22.90;67.00;;;22.30;61.73;95513.75;4138470;34;19904;-86
2022/08/14 10:16:17;;;;;;;;;;;22.90;67.00;;;22.29;62.01;95514.13;4137703;34;20129;-87
2022/08/14 10:18:45;;;;;;;;;;;22.90;67.10;;;22.31;61.71;95512.59;4160954;34;20287;-87
2022/08/14 10:21:18;;;;;;;;;;;22.90;67.20;;;22.30;61.91;95508.19;4136561;34;20325;-86
2022/08/14 10:23:48;;;;;;;;;;;22.90;67.20;;;22.30;61.80;95505.41;4136753;34;19938;-87
2022/08/14 10:26:20;;;;;;;;;;;22.90;67.20;;;22.30;61.79;95505.41;4158990;34;20051;-86
2022/08/14 10:28:50;;;;;;;;;;;22.90;67.20;;;22.31;62.13;95507.00;4159649;34;19911;-86
2022/08/14 10:31:21;;;;;;;;;;;22.90;67.20;;;22.30;62.00;95499.81;4160394;34;19904;-87
2022/08/14 10:34:01;;;;;;;;;;;22.90;67.20;;;22.31;61.82;95493.06;4138133;34;20087;-87
2022/08/14 10:36:32;;;;;;;;;;;22.90;67.20;;;22.31;61.71;95489.50;4160278;34;20074;-86
2022/08/14 10:39:05;;;;;;;;;;;22.90;67.20;;;22.31;61.72;95479.13;4159716;34;19911;-86
2022/08/14 10:41:41;;;;;;;;;;;22.90;67.20;;;22.30;61.76;95482.28;4159489;34;19903;-86
2022/08/14 10:44:12;;;;;;;;;;;22.90;67.20;;;22.30;61.66;95483.09;4109170;34;20106;-86
2022/08/14 10:46:45;;;;;;;;;;;22.90;67.20;;;22.27;62.18;95478.25;4101295;34;20270;-88
2022/08/14 10:49:20;;;;;;;;;;;22.90;67.30;;;22.28;62.07;95477.06;4154218;34;19904;-87
2022/08/14 10:52:00;;;;;;;;;;;22.90;67.30;;;22.28;61.96;95479.06;4177585;34;19903;-87
2022/08/14 10:54:31;;;;;;;;;;;22.90;67.40;;;22.28;62.24;95479.06;4177783;34;19904;-87
2022/08/14 10:57:13;;;;;;;;;;;22.90;67.40;;;22.26;62.48;95476.66;4139336;34;19903;-87
2022/08/14 10:59:44;;;;;;;;;;;22.90;67.50;;;22.25;62.30;95472.25;4127074;34;19903;-87
2022/08/14 11:02:21;;;;;;;;;;;22.90;67.50;;;22.27;62.17;95474.66;4149939;34;19903;-87
2022/08/14 11:05:11;;;;;;;;;;;22.90;67.50;;;22.27;61.95;95483.81;4127461;34;20075;-87
2022/08/14 11:07:51;;;;;;;;;;;22.90;67.60;;;22.25;61.95;95477.81;4126924;34;19912;-87
2022/08/14 11:10:19;;;;;;;;;;;22.90;67.60;;;22.26;62.20;95487.81;4149744;34;20039;-86
2022/08/14 11:12:55;;;;;;;;;;;22.90;67.60;;;22.26;62.40;95498.13;4127378;34;20381;-86
2022/08/14 11:15:26;;;;;;;;;;;22.90;67.60;;;22.25;62.33;95502.91;4127263;34;20173;-86
2022/08/14 11:17:55;;;;;;;;;;;22.80;67.60;;;22.27;62.59;95503.34;4149438;34;19919;-86
2022/08/14 11:20:28;;;;;;;;;;;22.90;67.70;;;22.25;62.38;95491.75;4127196;34;20144;-86
2022/08/14 11:23:00;;;;;;;;;;;22.80;67.60;;;22.25;62.19;95496.50;4126975;34;19962;-85
2022/08/14 11:25:30;;;;;;;;;;;22.80;67.70;;;22.25;62.38;95491.75;4127456;34;19908;-86
2022/08/14 11:28:00;;;;;;;;;;;22.90;67.80;;;22.25;62.54;95490.94;4149446;34;20114;-86
2022/08/14 11:30:29;;;;;;;;;;;22.80;67.70;;;22.24;62.53;95487.34;4126892;34;20169;-86
2022/08/14 11:32:58;;;;;;;;;;;22.80;67.80;;;22.25;62.59;95490.94;4127073;34;19904;-86
2022/08/14 11:35:30;;;;;;;;;;;22.80;67.70;;;22.24;62.06;95484.56;4126966;34;19911;-86
2022/08/14 11:38:02;;;;;;;;;;;22.80;67.70;;;22.26;62.54;95481.41;4126599;34;20127;-86
2022/08/14 11:40:33;;;;;;;;;;;22.80;67.80;;;22.24;62.35;95473.41;4127048;34;20245;-87
2022/08/14 11:43:04;;;;;;;;;;;22.80;67.80;;;22.24;62.35;95473.41;4149717;34;20100;-86
2022/08/14 11:45:34;;;;;;;;;;;22.90;68.70;;;22.24;62.53;95462.25;4126938;34;19911;-85
2022/08/14 11:48:15;;;;;;;;;;;22.80;67.70;;;22.24;62.57;95465.06;4126643;34;19904;-86
2022/08/14 11:50:48;;;;;;;;;;;22.80;67.80;;;22.25;62.35;95468.63;4127016;34;19904;-86
2022/08/14 11:53:29;;;;;;;;;;;22.90;67.90;;;22.24;62.68;95467.84;4127041;34;20455;-86
2022/08/14 11:56:01;;;;;;;;;;;22.80;67.80;;;22.25;62.55;95475.03;4126849;34;19903;-86
2022/08/14 11:58:32;;;;;;;;;;;22.80;67.80;;;22.27;62.77;95483.81;4126413;34;19903;-86
2022/08/14 12:01:02;;;;;;;;;;;22.80;67.80;;;22.25;62.68;95477.81;4150286;34;20132;-86
2022/08/14 12:03:39;;;;;;;;;;;22.80;67.80;;;22.26;62.54;95481.41;4126825;34;19904;-86
2022/08/14 12:06:09;;;;;;;;;;;22.90;67.90;;;22.26;62.57;95482.22;4126810;34;19904;-86
2022/08/14 12:08:40;;;;;;;;;;;22.90;68.00;;;22.28;62.35;95479.84;4149043;34;19904;-86
2022/08/14 12:11:11;;;;;;;;;;;22.90;67.80;;;22.29;62.34;95475.09;4126665;34;19981;-86
2022/08/14 12:13:42;;;;;;;;;;;22.90;67.80;;;22.27;62.08;95478.25;4126822;34;19903;-86
2022/08/14 12:16:12;;;;;;;;;;;22.90;67.70;;;22.29;62.46;95475.91;4149293;34;20120;-86
2022/08/14 12:18:42;;;;;;;;;;;22.90;67.70;;;22.30;62.35;95471.94;4148802;34;19942;-86
2022/08/14 12:21:12;;;;;;;;;;;22.90;67.70;;;22.30;62.08;95469.16;4126605;34;20115;-86
2022/08/14 12:24:03;;;;;;;;;;;22.90;67.60;;;22.29;62.65;95475.09;4126991;34;20098;-86
2022/08/14 12:26:32;;;;;;;;;;;22.90;67.60;;;22.32;62.43;95480.75;4150148;34;20379;-86
2022/08/14 12:29:07;;;;;;;;;;;22.90;67.60;;;22.32;62.45;95486.31;4148894;34;19911;-86
2022/08/14 12:31:36;;;;;;;;;;;22.90;67.60;;;22.31;62.43;95481.13;4149143;34;19904;-86
2022/08/14 12:34:07;;;;;;;;;;;22.90;67.60;;;22.31;62.59;95483.91;4151320;34;20523;-86
2022/08/14 12:36:36;;;;;;;;;;;22.90;67.70;;;22.31;62.27;95493.06;4151433;34;20175;-86
2022/08/14 12:39:17;;;;;;;;;;;22.90;67.60;;;22.31;62.14;95483.91;4152094;34;20117;-86
2022/08/14 12:41:51;;;;;;;;;;;22.90;67.60;;;22.30;61.99;95488.66;4151307;34;19904;-86
2022/08/14 12:44:29;;;;;;;;;;;22.90;67.60;;;22.30;62.30;95479.50;4151546;34;20237;-87
2022/08/14 12:47:06;;;;;;;;;;;22.90;67.60;;;22.32;62.24;95474.38;4128678;34;20238;-86
2022/08/14 12:49:35;;;;;;;;;;;22.90;67.60;;;22.30;62.35;95469.16;4128011;34;20240;-86
2022/08/14 12:52:06;;;;;;;;;;;22.90;67.60;;;22.29;62.42;95461.94;4151441;34;20070;-86
2022/08/14 12:54:38;;;;;;;;;;;22.90;67.60;;;22.30;62.31;95452.41;4151428;34;19973;-86
2022/08/14 12:57:09;;;;;;;;;;;22.90;67.60;;;22.30;62.12;95449.63;4151402;34;19927;-86
2022/08/14 12:59:38;;;;;;;;;;;22.90;67.60;;;22.29;62.52;95448.00;4150983;34;19904;-86
2022/08/14 13:02:19;;;;;;;;;;;22.90;67.60;;;22.29;62.20;95441.66;4128469;34;20047;-85
2022/08/14 13:04:49;;;;;;;;;;;22.90;67.60;;;22.27;62.08;95450.34;4152219;34;19910;-85
2022/08/14 13:07:18;;;;;;;;;;;22.90;67.60;;;22.27;62.46;95447.56;4151207;34;20286;-85
2022/08/14 13:09:48;;;;;;;;;;;22.90;67.60;;;22.28;62.43;95446.41;4159057;34;20015;-85
2022/08/14 13:12:16;;;;;;;;;;;22.90;67.70;;;22.27;62.34;95444.78;4155625;34;20326;-85
2022/08/14 13:14:45;;;;;;;;;;;22.90;67.70;;;22.27;62.52;95444.78;4155796;34;19904;-85
2022/08/14 13:17:13;;;;;;;;;;;22.90;67.70;;;22.27;62.64;95432.84;4155504;34;19910;-85
2022/08/14 13:19:44;;;;;;;;;;;22.90;67.70;;;22.26;62.33;95437.63;4155341;34;19903;-85
2022/08/14 13:22:13;;;;;;;;;;;22.80;67.60;;;22.25;62.12;95426.81;4178500;34;20133;-86
2022/08/14 13:24:41;;;;;;;;;;;22.90;68.60;;;22.26;62.12;95425.63;4155617;34;20133;-86